Time;durP1;ratioP1;P1;durP2;ratioP2;P2;SDS_P1;SDS_P2;PMS_P1;PMS_P2;Temp;Humidity;BMP_temperature;BMP_pressure;BME280_temperature;BME280_humidity;BME280_pressure;Samples;Min_cycle;Max_cycle;Signal;HPM_P1;HPM_P2
2021/12/02 00:01:04;;;;;;;9.35;6.13;;;;;;;2.77;88.10;100262.38;5033364;28;20029;-75
2021/12/02 00:03:30;;;;;;;9.07;6.55;;;;;;;2.77;88.38;100266.56;5033922;28;20522;-74
2021/12/02 00:05:55;;;;;;;8.20;5.90;;;;;;;2.79;88.19;100252.28;5033062;28;20026;-74
2021/12/02 00:08:21;;;;;;;9.60;5.80;;;;;;;2.85;88.29;100267.97;5037175;28;20037;-71
2021/12/02 00:10:46;;;;;;;9.20;5.30;;;;;;;2.86;87.67;100272.28;5033360;28;20440;-67
2021/12/02 00:13:12;;;;;;;8.23;5.85;;;;;;;2.84;87.55;100279.84;5031117;28;20029;-71
2021/12/02 00:15:51;;;;;;;8.18;4.85;;;;;;;2.58;88.22;100256.06;5032838;28;20025;-70
2021/12/02 00:23:28;;;;;;;10.53;5.67;;;;;;;2.45;89.65;100258.59;5032372;28;20091;-70
2021/12/02 00:25:57;;;;;;;7.60;5.70;;;;;;;2.46;89.68;100264.59;5032291;28;20519;-69
2021/12/02 00:28:25;;;;;;;8.20;5.50;;;;;;;2.50;89.95;100269.97;5032648;28;20116;-70
2021/12/02 00:30:54;;;;;;;8.63;5.97;;;;;;;2.38;89.93;100236.94;5031969;28;20044;-69
2021/12/02 00:33:22;;;;;;;10.10;5.88;;;;;;;2.53;89.53;100254.91;5032330;28;20296;-69
2021/12/02 00:35:48;;;;;;;9.27;6.13;;;;;;;2.55;89.13;100240.56;5013534;28;20045;-68
2021/12/02 00:38:14;;;;;;;9.60;6.53;;;;;;;2.45;89.11;100219.50;5031800;28;20463;-70
2021/12/02 00:40:40;;;;;;;8.02;5.88;;;;;;;2.70;89.13;100252.56;5031923;28;20036;-70
2021/12/02 00:43:06;;;;;;;8.88;6.10;;;;;;;2.68;88.94;100249.00;5032046;28;20116;-70
2021/12/02 00:45:32;;;;;;;9.85;5.97;;;;;;;2.68;87.98;100236.28;5031543;28;20564;-70
2021/12/02 00:47:59;;;;;;;13.63;6.40;;;;;;;2.52;87.74;100198.75;5031998;28;20018;-70
2021/12/02 00:50:25;;;;;;;10.73;6.20;;;;;;;2.76;87.94;100245.31;5032274;28;20030;-68
2021/12/02 00:52:51;;;;;;;11.75;7.20;;;;;;;2.41;87.92;100237.13;5032354;28;20087;-69
2021/12/02 00:55:18;;;;;;;9.07;6.05;;;;;;;2.28;89.84;100254.03;5032253;28;20030;-71
2021/12/02 00:57:45;;;;;;;10.67;6.87;;;;;;;2.14;90.93;100250.59;5032579;28;20029;-73
2021/12/02 01:00:11;;;;;;;11.40;7.23;;;;;;;2.21;91.36;100257.88;5032373;28;20033;-73
2021/12/02 01:02:37;;;;;;;10.73;7.27;;;;;;;1.81;91.41;100216.97;5032509;28;20037;-75
2021/12/02 01:05:03;;;;;;;15.07;6.87;;;;;;;1.86;91.72;100210.56;5032305;28;20030;-67
2021/12/02 01:07:29;;;;;;;16.93;7.90;;;;;;;2.29;90.54;100256.69;5031869;28;20128;-69
2021/12/02 01:09:54;;;;;;;14.60;7.37;;;;;;;2.44;90.05;100261.91;5031312;28;20112;-69
2021/12/02 01:12:20;;;;;;;16.60;7.40;;;;;;;2.52;89.72;100255.66;5031372;28;20025;-69
2021/12/02 01:14:46;;;;;;;12.63;6.90;;;;;;;2.57;89.45;100258.53;5031256;28;20167;-70
2021/12/02 01:17:12;;;;;;;10.70;7.13;;;;;;;2.62;89.21;100257.16;5031360;28;20024;-70
2021/12/02 01:19:37;;;;;;;14.37;7.30;;;;;;;2.69;88.93;100258.44;5031154;28;20029;-68
2021/12/02 01:22:03;;;;;;;19.23;8.20;;;;;;;2.68;88.34;100256.66;5031447;28;20026;-71
2021/12/02 01:24:30;;;;;;;15.63;8.10;;;;;;;2.66;88.56;100253.16;5031148;28;20490;-72
2021/12/02 01:26:57;;;;;;;14.23;7.33;;;;;;;2.33;87.67;100200.09;5031792;28;20475;-72
2021/12/02 01:29:24;;;;;;;20.40;7.23;;;;;;;2.39;87.86;100212.31;5031818;28;20393;-69
2021/12/02 01:31:53;;;;;;;14.07;7.03;;;;;;;2.51;87.29;100245.38;5031340;28;20033;-72
2021/12/02 01:34:27;;;;;;;15.70;6.93;;;;;;;2.56;87.35;100249.13;5031046;28;20037;-75
2021/12/02 01:36:54;;;;;;;15.70;8.50;;;;;;;2.53;87.86;100236.16;5031218;28;20049;-68
2021/12/02 01:39:21;;;;;;;14.37;7.33;;;;;;;2.23;87.33;100197.69;5031406;28;20033;-70
2021/12/02 01:41:57;;;;;;;20.50;8.27;;;;;;;2.39;87.93;100251.44;5030733;28;20095;-72
2021/12/02 01:44:24;;;;;;;16.13;8.07;;;;;;;2.00;87.98;100180.91;5030607;28;20108;-73
2021/12/02 01:46:58;;;;;;;16.50;8.43;;;;;;;2.21;88.31;100232.41;5030342;28;20026;-71
2021/12/02 01:49:28;;;;;;;13.90;7.03;;;;;;;2.21;88.57;100242.59;5030432;28;20025;-73
2021/12/02 01:51:55;;;;;;;13.80;7.77;;;;;;;2.17;89.41;100240.59;5024165;28;20526;-72
2021/12/02 01:54:23;;;;;;;13.97;8.70;;;;;;;1.99;89.61;100222.44;5030804;28;20029;-72
2021/12/02 01:57:05;;;;;;;14.20;9.33;;;;;;;2.15;89.90;100243.03;5030933;28;20055;-72
2021/12/02 01:59:35;;;;;;;14.80;8.60;;;;;;;2.08;89.49;100231.56;5030796;28;20120;-69
2021/12/02 02:02:07;;;;;;;12.80;8.20;;;;;;;2.02;89.24;100210.78;5030756;28;20087;-72
2021/12/02 02:04:32;;;;;;;14.90;8.70;;;;;;;1.91;89.43;100199.00;5031040;28;20026;-73
2021/12/02 02:07:09;;;;;;;17.00;8.80;;;;;;;1.99;90.27;100242.81;5030864;28;20533;-70
2021/12/02 02:09:35;;;;;;;17.00;9.73;;;;;;;1.71;91.09;100233.31;5030718;28;20029;-72
2021/12/02 02:12:06;;;;;;;15.17;9.27;;;;;;;1.54;91.79;100255.03;5030986;28;20048;-72
2021/12/02 02:14:33;;;;;;;17.97;8.83;;;;;;;1.20;93.09;100252.66;5030693;28;20109;-72
2021/12/02 02:17:02;;;;;;;15.23;8.77;;;;;;;1.10;94.43;100229.13;5030619;28;20061;-76
2021/12/02 02:19:30;;;;;;;16.42;9.55;;;;;;;1.24;93.71;100229.22;5031757;28;20572;-75
2021/12/02 02:21:57;;;;;;;19.30;10.60;;;;;;;1.17;93.56;100193.97;5035407;28;20033;-74
2021/12/02 02:24:22;;;;;;;15.77;9.40;;;;;;;1.34;93.56;100229.06;5035010;28;20061;-76
2021/12/02 02:26:48;;;;;;;16.67;9.20;;;;;;;1.29;93.19;100238.91;5035396;28;20060;-73
2021/12/02 02:29:14;;;;;;;17.03;11.17;;;;;;;1.09;93.45;100214.63;5035699;28;20041;-66
2021/12/02 02:31:42;;;;;;;21.10;11.33;;;;;;;0.82;94.41;100218.63;5035007;28;20512;-74
2021/12/02 02:34:08;;;;;;;18.47;10.27;;;;;;;0.92;95.80;100235.44;5035195;28;20033;-71
2021/12/02 02:36:38;;;;;;;19.87;9.40;;;;;;;0.83;95.89;100250.03;5034759;28;20549;-72
2021/12/02 02:39:05;;;;;;;17.38;10.07;;;;;;;0.12;96.27;100139.13;5035219;28;20030;-75
2021/12/02 02:41:34;;;;;;;16.63;9.23;;;;;;;0.81;96.26;100247.38;5035172;28;20026;-77
2021/12/02 02:44:01;;;;;;;18.37;10.50;;;;;;;0.73;95.97;100256.09;5034246;28;20115;-77
2021/12/02 02:46:34;;;;;;;19.30;10.53;;;;;;;0.71;95.83;100253.47;5033623;28;20415;-77
2021/12/02 02:49:02;;;;;;;19.40;10.50;;;;;;;0.74;95.57;100256.22;5034410;28;20022;-75
2021/12/02 02:51:30;;;;;;;15.20;8.80;;;;;;;0.61;95.74;100259.53;5033918;28;20044;-77
2021/12/02 02:53:59;;;;;;;16.07;8.77;;;;;;;0.32;96.69;100263.34;5034436;28;20037;-75
2021/12/02 02:56:29;;;;;;;16.55;8.68;;;;;;;0.23;96.80;100244.00;5034007;28;20029;-76
2021/12/02 02:59:09;;;;;;;15.38;8.50;;;;;;;0.07;98.24;100259.72;5033332;28;20402;-74
2021/12/02 03:02:02;;;;;;;14.40;7.93;;;;;;;-0.33;99.95;100215.31;5051028;28;20025;-74
2021/12/02 03:07:33;;;;;;;13.40;7.50;;;;;;;-0.51;100.00;100194.53;5044090;28;20498;-75
2021/12/02 03:18:26;;;;;;;12.63;7.73;;;;;;;0.43;97.81;100207.38;4993736;28;20579;-78
2021/12/02 03:20:52;;;;;;;14.40;7.80;;;;;;;0.64;97.08;100213.13;4991556;28;20046;-78
2021/12/02 03:23:17;;;;;;;12.90;7.57;;;;;;;0.20;96.33;100114.28;4991938;28;20504;-78
2021/12/02 03:25:43;;;;;;;12.37;7.20;;;;;;;0.96;95.16;100227.28;4975459;28;20121;-75
2021/12/02 03:28:08;;;;;;;16.03;7.50;;;;;;;1.07;94.07;100239.09;4991866;28;20507;-76
2021/12/02 03:30:34;;;;;;;16.03;8.20;;;;;;;0.87;93.28;100203.72;4991355;28;20132;-74
2021/12/02 03:32:59;;;;;;;15.77;8.87;;;;;;;0.87;92.97;100211.34;4990446;28;20038;-77
2021/12/02 03:35:25;;;;;;;17.53;9.37;;;;;;;0.60;94.62;100249.25;5005299;28;20082;-76
2021/12/02 03:37:51;;;;;;;19.17;10.13;;;;;;;0.57;95.15;100213.44;4991699;28;20192;-72
2021/12/02 03:40:16;;;;;;;14.77;10.10;;;;;;;0.64;95.56;100241.94;4991817;28;20185;-72
2021/12/02 03:42:47;;;;;;;15.83;9.70;;;;;;;0.13;96.67;100242.44;4991815;28;20019;-73
2021/12/02 03:45:13;;;;;;;16.40;8.80;;;;;;;0.08;96.95;100216.69;4991712;28;20520;-75
2021/12/02 03:47:38;;;;;;;17.63;9.10;;;;;;;0.10;97.72;100240.53;4992591;28;20034;-75
2021/12/02 03:50:04;;;;;;;14.30;9.10;;;;;;;-0.22;98.25;100241.53;4993884;28;20033;-73
2021/12/02 03:52:30;;;;;;;20.37;10.47;;;;;;;-0.64;100.00;100223.91;4993850;28;20534;-76
2021/12/02 03:54:55;;;;;;;19.73;9.93;;;;;;;-0.62;100.00;100245.16;5012993;28;20027;-73
2021/12/02 03:57:21;;;;;;;16.30;9.23;;;;;;;-0.58;100.00;100248.06;5012825;28;20026;-72
2021/12/02 03:59:46;;;;;;;13.73;9.20;;;;;;;-0.79;100.00;100246.41;5002904;28;20117;-74
2021/12/02 04:02:12;;;;;;;12.33;8.10;;;;;;;-1.07;100.00;100255.25;4993802;28;20034;-73
2021/12/02 04:04:37;;;;;;;11.47;6.53;;;;;;;-1.31;100.00;100239.84;4994309;28;20022;-73
2021/12/02 04:07:03;;;;;;;15.30;12.03;;;;;;;-1.45;100.00;100193.94;4994151;28;20030;-74
2021/12/02 04:09:36;;;;;;;20.40;17.90;;;;;;;-1.18;100.00;100268.72;4992768;28;20019;-72
2021/12/02 04:12:08;;;;;;;12.30;9.60;;;;;;;-1.16;100.00;100252.88;4994010;28;20031;-70
2021/12/02 04:17:40;;;;;;;24.58;14.18;;;;;;;-1.19;100.00;100256.78;4971971;28;20163;-74
2021/12/02 04:20:07;;;;;;;31.77;13.93;;;;;;;-1.09;100.00;100261.81;4972282;28;20050;-75
2021/12/02 04:22:32;;;;;;;22.33;12.73;;;;;;;-1.11;100.00;100247.28;4972052;28;20035;-72
2021/12/02 04:24:57;;;;;;;19.17;11.60;;;;;;;-0.80;100.00;100248.03;4972054;28;20039;-71
2021/12/02 04:27:23;;;;;;;25.37;12.40;;;;;;;-0.63;100.00;100226.56;4955569;28;20029;-70
2021/12/02 04:29:48;;;;;;;22.27;11.53;;;;;;;-0.65;100.00;100192.56;4972037;28;20094;-73
2021/12/02 04:32:14;;;;;;;17.60;12.40;;;;;;;-0.27;99.21;100263.13;4955848;28;20111;-74
2021/12/02 04:34:39;;;;;;;27.47;13.00;;;;;;;-0.07;98.94;100268.84;4971851;28;20042;-70
2021/12/02 04:37:05;;;;;;;19.60;11.10;;;;;;;-0.13;97.84;100265.84;4971592;28;20071;-70
2021/12/02 04:39:30;;;;;;;21.40;10.90;;;;;;;-0.12;98.16;100248.19;4989256;28;20085;-72
2021/12/02 04:41:55;;;;;;;19.83;10.23;;;;;;;0.13;97.73;100262.72;4990566;28;20074;-73
2021/12/02 04:44:21;;;;;;;19.30;12.07;;;;;;;0.02;97.50;100258.50;4990941;28;20030;-74
2021/12/02 04:46:47;;;;;;;28.03;11.47;;;;;;;0.11;97.60;100271.88;4991090;28;20035;-71
2021/12/02 04:49:12;;;;;;;22.43;11.40;;;;;;;0.15;96.65;100271.34;4958305;28;20501;-72
2021/12/02 04:51:38;;;;;;;16.00;9.43;;;;;;;0.10;96.40;100272.63;4990984;28;20541;-72
2021/12/02 04:54:03;;;;;;;15.63;10.13;;;;;;;0.04;96.68;100273.06;4999083;28;20048;-74
2021/12/02 04:56:29;;;;;;;17.73;10.73;;;;;;;0.04;96.58;100278.16;5012254;28;20108;-77
2021/12/02 04:58:54;;;;;;;18.13;11.17;;;;;;;0.10;96.38;100283.69;5013100;28;20080;-76
2021/12/02 05:01:20;;;;;;;18.87;11.33;;;;;;;0.19;96.23;100287.69;5012025;28;20503;-72
2021/12/02 05:03:45;;;;;;;21.20;11.37;;;;;;;0.09;95.85;100271.75;5012755;28;20030;-71
2021/12/02 05:06:11;;;;;;;18.53;11.70;;;;;;;0.10;95.76;100252.34;5012582;28;20030;-74
2021/12/02 05:08:36;;;;;;;22.10;11.83;;;;;;;0.34;95.53;100283.75;5012401;28;20030;-74
2021/12/02 05:11:02;;;;;;;19.97;11.70;;;;;;;0.51;94.98;100286.66;5012207;28;20081;-74
2021/12/02 05:13:27;;;;;;;21.90;11.67;;;;;;;0.55;93.93;100278.50;5012564;28;20034;-71
2021/12/02 05:15:53;;;;;;;19.07;11.43;;;;;;;0.49;93.90;100268.78;5012550;28;20030;-71
2021/12/02 05:18:18;;;;;;;20.63;12.23;;;;;;;0.39;94.06;100291.72;5012385;28;20537;-70
2021/12/02 05:20:44;;;;;;;22.17;11.47;;;;;;;0.43;95.06;100296.25;5012621;28;20030;-74
2021/12/02 05:23:09;;;;;;;20.43;11.87;;;;;;;0.57;95.12;100312.53;5012629;28;20424;-72
2021/12/02 05:25:35;;;;;;;25.33;13.13;;;;;;;0.53;94.20;100274.97;5010587;28;20034;-74
2021/12/02 05:28:00;;;;;;;32.57;17.30;;;;;;;0.62;93.60;100301.94;5011920;28;20079;-71
2021/12/02 05:30:26;;;;;;;24.03;11.97;;;;;;;0.33;93.43;100276.91;5012313;28;20507;-72
2021/12/02 05:32:51;;;;;;;18.43;9.93;;;;;;;0.43;93.96;100298.81;5027577;28;20500;-73
2021/12/02 05:35:16;;;;;;;19.93;10.43;;;;;;;0.32;94.75;100298.91;5011919;28;20055;-70
2021/12/02 05:37:42;;;;;;;16.90;10.77;;;;;;;0.29;95.75;100306.25;5015302;28;20053;-71
2021/12/02 05:40:08;;;;;;;19.93;12.03;;;;;;;0.36;95.60;100302.53;5031031;28;20052;-71
2021/12/02 05:42:35;;;;;;;18.17;11.30;;;;;;;0.32;95.08;100306.50;5044023;28;20446;-73
2021/12/02 05:45:01;;;;;;;20.43;12.47;;;;;;;0.02;95.18;100258.50;5051402;28;20025;-74
2021/12/02 05:47:26;;;;;;;20.70;11.97;;;;;;;0.31;95.58;100301.28;5051739;28;20032;-68
2021/12/02 05:49:52;;;;;;;19.67;12.53;;;;;;;0.31;95.59;100308.91;5051369;28;20051;-71
2021/12/02 05:52:17;;;;;;;21.67;12.47;;;;;;;0.31;95.82;100293.69;5051372;28;20021;-71
2021/12/02 05:54:43;;;;;;;21.07;12.43;;;;;;;0.05;96.16;100268.88;5050176;28;20031;-69
2021/12/02 05:57:09;;;;;;;18.03;11.37;;;;;;;-0.02;96.74;100303.06;5051408;28;20029;-71
2021/12/02 05:59:34;;;;;;;24.97;11.57;;;;;;;0.01;96.24;100277.03;5049785;28;20086;-73
2021/12/02 06:02:00;;;;;;;25.37;13.10;;;;;;;-0.19;96.02;100272.22;5051253;28;20067;-73
2021/12/02 06:04:26;;;;;;;24.33;12.73;;;;;;;-0.46;96.49;100267.53;5051011;28;20059;-75
2021/12/02 06:06:51;;;;;;;19.07;11.57;;;;;;;-0.17;96.49;100298.56;5047394;28;20475;-72
2021/12/02 06:09:19;;;;;;;19.10;12.13;;;;;;;-0.11;96.75;100294.72;5050125;28;20498;-75
2021/12/02 06:11:45;;;;;;;18.23;11.00;;;;;;;-0.15;96.52;100277.50;5061825;28;20078;-76
2021/12/02 06:14:13;;;;;;;18.23;11.07;;;;;;;0.13;96.11;100303.34;5062893;28;20036;-75
2021/12/02 06:16:39;;;;;;;22.90;13.27;;;;;;;0.21;96.35;100307.31;5050535;28;20029;-75
2021/12/02 06:19:06;;;;;;;27.03;15.60;;;;;;;0.24;97.07;100301.63;5050316;28;20467;-75
2021/12/02 06:21:32;;;;;;;19.33;12.87;;;;;;;0.25;97.85;100306.81;5050578;28;20051;-75
2021/12/02 06:23:57;;;;;;;24.47;15.83;;;;;;;0.19;98.20;100293.66;5051369;28;20016;-75
2021/12/02 06:26:23;;;;;;;24.67;15.50;;;;;;;0.41;97.80;100306.31;5034951;28;20040;-74
2021/12/02 06:28:48;;;;;;;22.17;13.30;;;;;;;0.54;96.69;100308.09;5070593;28;20028;-75
2021/12/02 06:31:13;;;;;;;18.80;11.77;;;;;;;0.60;97.04;100311.09;5070010;28;20033;-75
2021/12/02 06:33:39;;;;;;;18.13;12.30;;;;;;;0.56;97.65;100290.44;5013898;28;20060;-76
2021/12/02 06:36:04;;;;;;;19.07;10.93;;;;;;;0.73;97.68;100305.25;5055649;28;20025;-76
2021/12/02 06:38:30;;;;;;;20.37;11.00;;;;;;;0.49;97.06;100251.00;5050330;28;20049;-76
2021/12/02 06:40:55;;;;;;;16.73;10.97;;;;;;;0.40;97.60;100279.16;5050620;28;20025;-76
2021/12/02 06:43:21;;;;;;;18.50;11.23;;;;;;;0.39;98.88;100306.97;5050482;28;20088;-77
2021/12/02 06:45:47;;;;;;;17.43;10.57;;;;;;;0.37;99.49;100291.59;5051924;28;20086;-75
2021/12/02 06:48:12;;;;;;;18.73;11.57;;;;;;;0.47;99.29;100299.16;5051805;28;20491;-73
2021/12/02 06:50:38;;;;;;;19.40;12.23;;;;;;;0.55;99.10;100288.66;5032973;28;20029;-75
2021/12/02 06:53:05;;;;;;;20.30;12.57;;;;;;;0.46;99.43;100255.84;5050402;28;20029;-75
2021/12/02 06:55:31;;;;;;;18.80;11.40;;;;;;;0.90;98.63;100298.00;5050265;28;20017;-78
2021/12/02 06:57:57;;;;;;;16.90;11.67;;;;;;;0.86;99.30;100286.72;5050488;28;20413;-77
2021/12/02 07:00:23;;;;;;;16.90;11.33;;;;;;;1.12;98.65;100296.22;5049420;28;20021;-76
2021/12/02 07:02:52;;;;;;;21.57;11.40;;;;;;;1.31;98.00;100287.38;5027350;28;20557;-75
2021/12/02 07:05:35;;;;;;;15.77;10.83;;;;;;;1.46;97.21;100290.13;4989306;28;20042;-75
2021/12/02 07:08:02;;;;;;;20.13;11.43;;;;;;;1.42;97.54;100291.56;5017812;28;20180;-75
2021/12/02 07:10:30;;;;;;;29.60;11.90;;;;;;;1.17;97.38;100248.22;5031925;28;20041;-75
2021/12/02 07:12:57;;;;;;;20.10;11.63;;;;;;;1.56;97.35;100296.75;5031913;28;20033;-76
2021/12/02 07:15:41;;;;;;;18.47;12.90;;;;;;;1.46;97.96;100292.66;5031796;28;20029;-73
2021/12/02 07:18:12;;;;;;;19.27;11.33;;;;;;;1.33;97.22;100254.41;5031485;28;20072;-73
2021/12/02 07:20:39;;;;;;;19.40;11.03;;;;;;;1.46;97.15;100279.94;5031809;28;20034;-73
2021/12/02 07:23:05;;;;;;;21.50;12.93;;;;;;;1.63;97.40;100288.72;5032072;28;20102;-74
2021/12/02 07:25:32;;;;;;;19.50;12.33;;;;;;;1.80;96.92;100281.41;5031719;28;20038;-72
2021/12/02 07:27:57;;;;;;;21.00;14.00;;;;;;;1.98;96.44;100286.84;5031430;28;20061;-73
2021/12/02 07:30:24;;;;;;;22.07;13.73;;;;;;;2.14;95.75;100282.00;5014644;28;20087;-73
2021/12/02 07:32:54;;;;;;;25.10;13.87;;;;;;;2.15;95.33;100258.31;5031493;28;20095;-72
2021/12/02 07:35:20;;;;;;;24.13;14.83;;;;;;;2.29;94.92;100284.72;5031496;28;20502;-72
2021/12/02 07:37:49;;;;;;;27.30;15.97;;;;;;;2.52;94.94;100290.47;5031200;28;20144;-73
2021/12/02 07:40:17;;;;;;;22.27;15.00;;;;;;;2.67;93.80;100285.50;4992073;28;20096;-76
2021/12/02 07:42:45;;;;;;;22.97;14.43;;;;;;;2.64;95.26;100286.19;5039558;28;20541;-72
2021/12/02 07:45:11;;;;;;;21.63;11.33;;;;;;;2.49;95.33;100286.03;5072941;28;20020;-75
2021/12/02 07:47:40;;;;;;;18.77;12.43;;;;;;;2.51;95.83;100284.47;5073796;28;20508;-73
2021/12/02 07:50:11;;;;;;;17.73;12.15;;;;;;;2.67;95.17;100268.53;5073160;28;20047;-73
2021/12/02 07:52:44;;;;;;;17.58;11.82;;;;;;;2.97;94.51;100283.19;5073125;28;20071;-73
2021/12/02 07:55:13;;;;;;;20.70;11.77;;;;;;;3.06;94.64;100281.22;5073250;28;20466;-75
2021/12/02 07:57:41;;;;;;;16.85;10.93;;;;;;;3.13;94.82;100268.06;5054859;28;20037;-72
2021/12/02 08:00:28;;;;;;;17.50;11.40;;;;;;;3.33;93.40;100271.88;5073474;28;20025;-72
2021/12/02 08:02:55;;;;;;;19.48;11.63;;;;;;;3.03;93.46;100197.72;4971922;28;20440;-73
2021/12/02 08:05:22;;;;;;;18.75;11.63;;;;;;;3.37;93.91;100281.47;4972139;28;20532;-74
2021/12/02 08:07:50;;;;;;;20.13;11.85;;;;;;;3.46;94.21;100282.84;4971427;28;20531;-74
2021/12/02 08:10:16;;;;;;;20.05;12.65;;;;;;;3.54;94.17;100282.53;4971716;28;20043;-75
2021/12/02 08:12:50;;;;;;;21.15;13.82;;;;;;;3.65;93.93;100274.66;4971862;28;20049;-75
2021/12/02 08:15:25;;;;;;;18.35;12.63;;;;;;;3.84;93.08;100274.13;4971831;28;20110;-74
2021/12/02 08:17:53;;;;;;;18.77;12.45;;;;;;;3.62;94.17;100270.25;4971188;28;20417;-74
2021/12/02 08:20:20;;;;;;;16.83;11.68;;;;;;;3.59;96.03;100271.72;4971824;28;20031;-74
2021/12/02 08:22:47;;;;;;;20.00;12.48;;;;;;;3.50;97.16;100275.47;4938991;28;20038;-72
2021/12/02 08:25:14;;;;;;;20.23;15.05;;;;;;;3.67;96.97;100266.28;4973392;28;20047;-72
2021/12/02 08:27:40;;;;;;;16.48;12.15;;;;;;;3.56;96.52;100229.91;4972733;28;20074;-74
2021/12/02 08:30:08;;;;;;;18.40;11.75;;;;;;;3.86;96.61;100275.06;4971571;28;20540;-74
2021/12/02 08:32:40;;;;;;;19.95;12.68;;;;;;;3.73;96.09;100215.59;4971847;28;20042;-73
2021/12/02 08:35:08;;;;;;;17.38;12.52;;;;;;;4.09;95.26;100273.00;5010173;28;20030;-71
2021/12/02 08:37:36;;;;;;;18.33;12.10;;;;;;;3.86;96.59;100259.75;5009621;28;20045;-74
2021/12/02 08:40:03;;;;;;;18.77;12.50;;;;;;;4.01;95.65;100231.69;5010415;28;20050;-73
2021/12/02 08:42:32;;;;;;;18.20;12.88;;;;;;;4.40;95.63;100249.28;5010504;28;20443;-73
2021/12/02 08:44:58;;;;;;;18.70;12.30;;;;;;;4.24;95.00;100250.94;5010314;28;20550;-74
2021/12/02 08:47:25;;;;;;;18.23;12.77;;;;;;;4.36;94.69;100244.00;5027287;28;20045;-74
2021/12/02 08:49:54;;;;;;;18.75;12.48;;;;;;;4.60;94.02;100225.75;5032188;28;20033;-74
2021/12/02 08:52:25;;;;;;;23.15;13.80;;;;;;;4.98;93.45;100236.38;5032289;28;20360;-74
2021/12/02 08:54:51;;;;;;;18.48;12.40;;;;;;;5.17;92.81;100234.03;5032394;28;20030;-74
2021/12/02 08:57:18;;;;;;;18.20;12.43;;;;;;;5.30;92.22;100227.88;5031818;28;20109;-74
2021/12/02 08:59:45;;;;;;;17.45;11.70;;;;;;;5.51;91.80;100228.16;5030141;28;20033;-74
2021/12/02 09:02:11;;;;;;;21.70;12.35;;;;;;;5.70;90.76;100218.91;5030948;28;20178;-74
2021/12/02 09:04:37;;;;;;;26.80;14.65;;;;;;;5.86;90.04;100212.91;5031999;28;20474;-73
2021/12/02 09:07:03;;;;;;;18.88;13.13;;;;;;;5.97;90.54;100195.53;5027206;28;20022;-74
2021/12/02 09:09:29;;;;;;;20.98;12.38;;;;;;;6.13;89.66;100202.31;5009532;28;20041;-73
2021/12/02 09:11:57;;;;;;;21.05;12.15;;;;;;;6.31;89.16;100199.81;5012090;28;20025;-73
2021/12/02 09:14:23;;;;;;;19.33;11.05;;;;;;;6.43;88.17;100189.25;5012409;28;20037;-74
2021/12/02 09:16:50;;;;;;;15.80;10.90;;;;;;;6.35;88.62;100185.44;5009775;28;20621;-73
2021/12/02 09:19:17;;;;;;;15.63;10.30;;;;;;;6.44;87.63;100171.41;5012328;28;20031;-73
2021/12/02 09:21:42;;;;;;;16.23;11.32;;;;;;;6.63;86.12;100164.59;5013016;28;20014;-73
2021/12/02 09:24:08;;;;;;;20.50;11.88;;;;;;;6.59;87.58;100140.50;5011617;28;20028;-73
2021/12/02 09:26:34;;;;;;;15.73;10.35;;;;;;;6.57;84.88;100116.44;5011580;28;20033;-71
2021/12/02 09:28:59;;;;;;;16.63;11.20;;;;;;;6.79;83.99;100135.41;5027356;28;20034;-70
2021/12/02 09:31:25;;;;;;;14.65;10.38;;;;;;;7.10;83.81;100158.25;5030794;28;20030;-71
2021/12/02 09:34:10;;;;;;;16.42;10.52;;;;;;;7.28;82.80;100163.31;5027509;28;20100;-71
2021/12/02 09:36:37;;;;;;;16.08;10.60;;;;;;;7.43;83.13;100157.13;5009630;28;20046;-69
2021/12/02 09:39:05;;;;;;;15.75;9.73;;;;;;;7.60;82.25;100156.19;5011244;28;20050;-71
2021/12/02 09:41:31;;;;;;;18.83;10.00;;;;;;;7.77;81.75;100145.75;5009789;28;20046;-70
2021/12/02 09:43:57;;;;;;;16.25;9.52;;;;;;;7.90;81.76;100148.03;5006495;28;20103;-71
2021/12/02 09:46:23;;;;;;;17.08;9.93;;;;;;;7.90;83.55;100134.28;5009575;28;20500;-71
2021/12/02 09:48:49;;;;;;;15.93;9.60;;;;;;;7.60;84.46;100098.75;5009840;28;20176;-71
2021/12/02 09:51:45;;;;;;;17.45;10.75;;;;;;;7.75;85.61;100125.13;5009334;28;20420;-71
2021/12/02 09:57:02;;;;;;;14.68;9.65;;;;;;;8.12;82.09;100110.34;4900683;29;20052;-72
2021/12/02 09:59:34;;;;;;;17.58;10.40;;;;;;;8.32;81.26;100106.00;4912953;29;20119;-71
2021/12/02 10:02:03;;;;;;;14.88;9.13;;;;;;;8.43;80.85;100103.88;4912818;29;20048;-71
2021/12/02 10:04:30;;;;;;;15.45;9.90;;;;;;;8.53;79.47;100097.44;4912931;29;20055;-71
2021/12/02 10:07:20;;;;;;;14.80;9.38;;;;;;;8.60;79.40;100091.72;4912321;29;20075;-71
2021/12/02 10:10:01;;;;;;;;;;;;;;;8.58;78.33;100098.50;4913039;29;20033;-71
2021/12/02 10:12:29;;;;;;;14.80;8.35;;;;;;;8.54;78.54;100081.19;4896648;29;19975;-71
2021/12/02 10:14:57;;;;;;;16.23;9.15;;;;;;;8.50;78.77;100085.34;4894019;29;20419;-71
2021/12/02 10:17:38;;;;;;;14.33;8.77;;;;;;;8.62;78.92;100081.47;4893706;29;20037;-71
2021/12/02 10:20:39;;;;;;;15.82;9.82;;;;;;;8.74;78.27;100058.78;4893625;29;20277;-71
2021/12/02 10:23:18;;;;;;;16.40;10.25;;;;;;;8.99;77.32;100068.28;4893261;29;20121;-75
2021/12/02 10:26:00;;;;;;;13.93;10.07;;;;;;;9.09;78.26;100069.50;4894511;29;20145;-75
2021/12/02 10:28:29;;;;;;;13.88;9.23;;;;;;;9.26;77.29;100064.97;4893445;29;20345;-73
2021/12/02 10:31:00;;;;;;;12.73;7.60;;;;;;;8.97;76.77;100039.06;4915053;29;20054;-74
2021/12/02 10:33:36;;;;;;;11.55;7.60;;;;;;;9.15;76.42;100059.44;4982066;28;20261;-73
2021/12/02 10:36:08;;;;;;;15.90;8.68;;;;;;;9.26;76.89;100051.19;5010620;28;20025;-71
2021/12/02 10:38:44;;;;;;;13.27;8.90;;;;;;;9.48;77.05;100040.84;5038851;28;20059;-74
2021/12/02 10:41:24;;;;;;;11.80;7.53;;;;;;;9.58;75.94;100033.41;5030066;28;20041;-75
2021/12/02 10:44:29;;;;;;;10.38;7.38;;;;;;;9.73;76.96;100021.03;5000860;28;20038;-75
2021/12/02 10:46:57;;;;;;;10.07;6.07;;;;;;;9.78;76.04;100019.50;4993260;28;20038;-75
2021/12/02 10:49:24;;;;;;;8.07;5.60;;;;;;;9.95;74.91;100014.88;5002461;28;20030;-75
2021/12/02 10:51:53;;;;;;;13.25;6.38;;;;;;;10.09;75.91;100011.88;4991387;28;20052;-72
2021/12/02 10:54:43;;;;;;;13.38;7.95;;;;;;;10.21;74.59;100012.25;4992699;28;20120;-73
2021/12/02 10:57:13;;;;;;;8.70;5.07;;;;;;;10.38;73.44;100002.50;4991884;28;20050;-75
2021/12/02 10:59:50;;;;;;;7.57;5.32;;;;;;;10.42;73.32;99988.84;4961781;28;20038;-78
2021/12/02 11:02:28;;;;;;;7.40;4.60;;;;;;;10.57;72.64;99991.00;4992586;28;20504;-76
2021/12/02 11:04:59;;;;;;;8.75;5.03;;;;;;;10.54;72.10;99988.31;4995525;28;20085;-75
2021/12/02 11:07:41;;;;;;;15.55;6.93;;;;;;;10.58;73.20;99981.53;5003936;28;20034;-73
2021/12/02 11:10:12;;;;;;;14.68;8.40;;;;;;;10.61;74.11;99973.91;4991968;28;20038;-72
2021/12/02 11:12:41;;;;;;;14.27;8.18;;;;;;;10.50;72.74;99928.00;5020706;28;20422;-69
2021/12/02 11:15:17;;;;;;;13.63;8.32;;;;;;;10.71;73.27;99963.00;5034553;28;20479;-68
2021/12/02 11:17:48;;;;;;;13.15;6.45;;;;;;;10.84;72.99;99953.88;5013483;28;20045;-70
2021/12/02 11:20:33;;;;;;;10.50;7.05;;;;;;;10.82;73.43;99955.56;5033565;28;20457;-73
2021/12/02 11:23:06;;;;;;;8.75;5.80;;;;;;;10.92;74.16;99941.19;5034007;28;20415;-70
2021/12/02 11:25:35;;;;;;;10.52;6.75;;;;;;;10.86;74.12;99939.31;5031643;28;20128;-72
2021/12/02 11:28:06;;;;;;;9.98;6.68;;;;;;;10.99;74.35;99937.91;5032644;28;20021;-72
2021/12/02 11:30:33;;;;;;;11.20;6.25;;;;;;;11.04;73.62;99935.47;5036115;28;20549;-70
2021/12/02 11:33:03;;;;;;;9.02;5.25;;;;;;;11.12;73.29;99933.97;5039000;28;20025;-71
2021/12/02 11:35:40;;;;;;;11.30;5.50;;;;;;;11.04;72.77;99928.59;5053568;28;20033;-71
2021/12/02 11:38:14;;;;;;;9.95;6.15;;;;;;;10.84;72.62;99891.91;5051976;28;20033;-70
2021/12/02 11:40:49;;;;;;;9.63;5.50;;;;;;;11.11;72.16;99921.88;5032351;28;20037;-73
2021/12/02 11:43:19;;;;;;;8.15;5.40;;;;;;;11.25;73.50;99919.63;5032851;28;20564;-72
2021/12/02 11:45:47;;;;;;;8.55;5.07;;;;;;;11.25;74.74;99922.22;5050709;28;20075;-73
2021/12/02 11:48:27;;;;;;;14.00;6.90;;;;;;;11.21;74.19;99912.66;5053450;28;20460;-73
2021/12/02 11:50:57;;;;;;;12.40;6.28;;;;;;;11.19;75.19;99916.91;5053437;28;20078;-69